Time;durP1;ratioP1;P1;durP2;ratioP2;P2;SDS_P1;SDS_P2;PMS_P1;PMS_P2;Temp;Humidity;BMP_temperature;BMP_pressure;BME280_temperature;BME280_humidity;BME280_pressure;Samples;Min_cycle;Max_cycle;Signal;HPM_P1;HPM_P2
2023/03/13 00:00:57;;;;;;;8.18;4.90;;;;;;;-0.48;58.09;94916.31;4999693;28;20028;-79
2023/03/13 00:03:22;;;;;;;8.25;5.80;;;;;;;-0.36;58.28;94936.28;5016670;28;20040;-78
2023/03/13 00:05:48;;;;;;;7.72;4.82;;;;;;;-0.44;56.27;94911.94;5016087;28;20025;-78
2023/03/13 00:08:13;;;;;;;8.48;5.72;;;;;;;-0.46;54.29;94910.25;4999242;28;20030;-78
2023/03/13 00:10:39;;;;;;;7.32;5.20;;;;;;;-0.67;55.03;94883.00;5033649;28;20510;-78
2023/03/13 00:13:05;;;;;;;9.40;5.50;;;;;;;-0.43;55.22;94916.13;5038735;28;20032;-78
2023/03/13 00:15:30;;;;;;;8.27;5.35;;;;;;;-0.55;55.87;94907.22;5035532;28;20513;-78
2023/03/13 00:17:56;;;;;;;9.30;5.03;;;;;;;-0.61;54.42;94887.88;5034519;28;20514;-78
2023/03/13 00:20:21;;;;;;;7.85;5.10;;;;;;;0.23;55.00;95029.34;5053001;28;20128;-78
2023/03/13 00:22:47;;;;;;;6.72;4.55;;;;;;;-0.69;54.98;94887.34;5035360;28;20472;-79
2023/03/13 00:25:12;;;;;;;7.20;4.93;;;;;;;-0.44;55.50;94922.16;5034020;28;20034;-79
2023/03/13 00:27:38;;;;;;;7.07;4.75;;;;;;;-0.57;55.51;94925.13;5033202;28;20022;-79
2023/03/13 00:30:04;;;;;;;7.72;4.95;;;;;;;0.13;55.17;95040.81;5034124;28;20103;-78
2023/03/13 00:32:29;;;;;;;6.07;4.18;;;;;;;0.18;56.44;95042.28;5032652;28;20037;-78
2023/03/13 00:34:55;;;;;;;6.95;4.13;;;;;;;-0.47;56.86;94941.78;5038582;28;20040;-78
2023/03/13 00:37:20;;;;;;;7.40;5.25;;;;;;;-1.16;56.06;94861.88;5052673;28;20036;-78
2023/03/13 00:39:46;;;;;;;8.93;4.57;;;;;;;-0.68;55.90;94940.03;5034897;28;20057;-78
2023/03/13 00:42:11;;;;;;;7.22;4.80;;;;;;;-0.78;55.51;94913.16;5052542;28;20063;-78
2023/03/13 00:44:37;;;;;;;8.30;4.88;;;;;;;-0.78;55.84;94929.34;5031000;28;20129;-79
2023/03/13 00:47:04;;;;;;;10.55;6.07;;;;;;;-0.77;57.07;94935.25;5032701;28;20142;-79
2023/03/13 00:49:30;;;;;;;18.52;8.45;;;;;;;-0.05;57.57;95040.63;5037572;28;20490;-79
2023/03/13 00:51:55;;;;;;;13.30;6.75;;;;;;;-0.97;58.30;94888.38;5052440;28;20475;-78
2023/03/13 00:54:21;;;;;;;8.15;5.07;;;;;;;-0.81;56.22;94910.75;5015758;28;20044;-78
2023/03/13 00:56:47;;;;;;;9.85;4.85;;;;;;;-0.51;56.30;94960.63;5033868;28;20029;-78
2023/03/13 00:59:13;;;;;;;6.15;4.35;;;;;;;0.02;55.88;95043.78;5032996;28;20033;-78
2023/03/13 01:01:38;;;;;;;7.57;4.40;;;;;;;-0.70;55.36;94932.44;5015091;28;20060;-79
2023/03/13 01:04:06;;;;;;;7.32;4.75;;;;;;;-0.85;56.56;94920.22;5039915;28;20119;-79
2023/03/13 01:06:33;;;;;;;8.48;4.70;;;;;;;-0.68;55.59;94952.78;5034907;28;20033;-79
2023/03/13 01:08:58;;;;;;;6.43;4.55;;;;;;;-0.07;56.23;95050.06;5052904;28;20031;-79
2023/03/13 01:11:25;;;;;;;6.82;4.70;;;;;;;-0.81;56.05;94941.34;5034621;28;20525;-78
2023/03/13 01:13:58;;;;;;;7.70;4.32;;;;;;;-0.04;56.17;95067.00;5052722;28;20120;-78
2023/03/13 01:16:25;;;;;;;7.00;4.43;;;;;;;0.02;56.95;95050.59;5052553;28;20021;-78
2023/03/13 01:18:55;;;;;;;6.50;4.05;;;;;;;-0.06;57.47;95056.81;5034634;28;20126;-78
2023/03/13 01:21:21;;;;;;;6.78;4.25;;;;;;;-0.63;55.89;94960.28;5052514;28;20027;-78
2023/03/13 01:23:47;;;;;;;7.57;4.68;;;;;;;-0.10;56.36;95052.72;5034923;28;20061;-78
2023/03/13 01:26:12;;;;;;;6.25;4.55;;;;;;;-0.74;56.98;94974.25;5052413;28;20025;-79
2023/03/13 01:28:38;;;;;;;6.55;5.00;;;;;;;-0.21;56.62;95048.91;5034556;28;20029;-79
2023/03/13 01:31:14;;;;;;;7.10;4.53;;;;;;;-0.20;56.64;95046.28;5051980;28;20465;-79
2023/03/13 01:33:40;;;;;;;8.90;4.82;;;;;;;-0.94;56.12;94953.75;5050509;28;20036;-79
2023/03/13 01:36:06;;;;;;;8.30;4.65;;;;;;;-1.12;56.32;94922.06;5052172;28;20266;-78
2023/03/13 01:38:32;;;;;;;6.90;4.55;;;;;;;-1.19;57.22;94920.63;5042334;28;20061;-78
2023/03/13 01:40:57;;;;;;;7.53;4.63;;;;;;;-0.52;56.58;95015.13;5014447;28;20026;-78
2023/03/13 01:43:23;;;;;;;8.20;4.55;;;;;;;-0.22;56.54;95060.88;5014549;28;20036;-78
2023/03/13 01:46:04;;;;;;;6.28;4.43;;;;;;;-0.30;55.76;95040.72;5032194;28;20477;-78
2023/03/13 01:48:30;;;;;;;7.10;4.28;;;;;;;-1.14;56.63;94929.78;5033919;28;20491;-78
2023/03/13 01:50:56;;;;;;;5.75;3.78;;;;;;;-0.27;58.51;95065.31;5032029;28;20049;-78
2023/03/13 01:53:22;;;;;;;6.32;4.32;;;;;;;-1.22;57.36;94936.03;5014273;28;20171;-78
2023/03/13 01:55:48;;;;;;;6.15;4.32;;;;;;;-1.05;57.94;94979.63;5031856;28;20053;-78
2023/03/13 01:58:13;;;;;;;7.03;4.32;;;;;;;-0.99;58.00;94978.56;5011587;28;20072;-78
2023/03/13 02:00:41;;;;;;;7.63;3.80;;;;;;;-0.31;57.92;95069.66;5030797;28;20030;-79
2023/03/13 02:03:09;;;;;;;7.18;4.47;;;;;;;-0.44;57.90;95071.03;5013554;28;20033;-78
2023/03/13 02:05:35;;;;;;;7.15;4.13;;;;;;;-0.87;59.33;95028.31;5013052;28;20092;-78
2023/03/13 02:08:07;;;;;;;7.70;4.35;;;;;;;-0.58;58.31;95070.69;5013662;28;20483;-78
2023/03/13 02:10:33;;;;;;;7.93;4.60;;;;;;;-1.32;59.21;94944.88;5030027;28;20026;-78
2023/03/13 02:12:58;;;;;;;5.63;3.80;;;;;;;-1.06;58.87;94994.94;4997244;28;20088;-78
2023/03/13 02:15:25;;;;;;;5.22;3.72;;;;;;;-1.50;59.01;94934.44;4997086;28;20032;-78
2023/03/13 02:17:50;;;;;;;9.73;4.18;;;;;;;-1.44;58.72;94933.38;5049809;28;20143;-78
2023/03/13 02:20:17;;;;;;;5.93;4.30;;;;;;;-0.41;57.75;95075.19;5050809;28;20380;-78
2023/03/13 02:22:51;;;;;;;7.75;4.30;;;;;;;-1.16;57.66;94953.66;5050674;28;20033;-78
2023/03/13 02:25:29;;;;;;;6.57;4.13;;;;;;;-0.47;57.95;95082.16;5042415;28;20035;-78
2023/03/13 02:27:57;;;;;;;8.02;4.30;;;;;;;-0.41;57.99;95085.41;5013419;28;20045;-78
2023/03/13 02:30:22;;;;;;;5.55;3.25;;;;;;;-1.22;58.14;94962.34;5013376;28;20037;-78
2023/03/13 02:32:48;;;;;;;5.32;3.63;;;;;;;-1.26;57.75;94953.13;5013155;28;20033;-78
2023/03/13 02:35:16;;;;;;;6.88;4.30;;;;;;;-1.39;58.67;94940.00;5013902;28;20064;-78
2023/03/13 02:37:41;;;;;;;5.28;3.67;;;;;;;-0.61;59.06;95071.63;5050391;28;20491;-78
2023/03/13 02:40:12;;;;;;;4.70;3.58;;;;;;;-0.42;59.60;95099.03;5005511;28;20041;-78
2023/03/13 02:42:38;;;;;;;5.37;3.50;;;;;;;-0.54;60.65;95098.56;5013104;28;20080;-78
2023/03/13 02:45:04;;;;;;;6.30;4.00;;;;;;;-0.90;60.04;95060.69;5024444;28;20455;-78
2023/03/13 02:47:29;;;;;;;6.05;3.80;;;;;;;-1.26;59.43;95027.06;5032635;28;20029;-78
2023/03/13 02:49:55;;;;;;;5.75;4.00;;;;;;;-1.62;60.35;94986.59;5050585;28;20022;-78
2023/03/13 02:52:24;;;;;;;6.72;4.05;;;;;;;-1.14;60.01;95089.59;5050346;28;20044;-78
2023/03/13 02:54:52;;;;;;;8.13;5.07;;;;;;;-1.71;60.01;95004.75;5016279;28;20182;-78
2023/03/13 02:57:17;;;;;;;15.38;8.38;;;;;;;-1.09;59.72;95135.31;5050400;28;20029;-78
2023/03/13 02:59:42;;;;;;;15.10;8.85;;;;;;;-1.97;59.59;95009.84;5040053;28;20045;-78
2023/03/13 03:02:08;;;;;;;16.98;9.35;;;;;;;-1.71;60.22;95034.50;5031173;28;20475;-79
2023/03/13 03:04:34;;;;;;;13.57;7.90;;;;;;;-2.14;60.41;95018.00;5018197;28;20091;-78
2023/03/13 03:07:00;;;;;;;13.50;7.15;;;;;;;-1.97;60.91;95053.13;5030172;28;20032;-78
2023/03/13 03:09:25;;;;;;;10.52;6.20;;;;;;;-2.13;61.09;95001.84;5013021;28;20033;-78
2023/03/13 03:11:51;;;;;;;9.50;5.65;;;;;;;-1.42;61.99;95130.38;5030373;28;20033;-78
2023/03/13 03:14:16;;;;;;;7.70;4.60;;;;;;;-1.33;61.91;95142.03;5030760;28;20034;-78
2023/03/13 03:16:42;;;;;;;7.28;4.68;;;;;;;-1.45;62.20;95138.13;5030524;28;20112;-78
2023/03/13 03:19:07;;;;;;;6.90;4.53;;;;;;;-2.07;61.83;95048.28;5013316;28;20037;-78
2023/03/13 03:21:33;;;;;;;6.28;4.07;;;;;;;-2.15;61.03;95049.41;5030360;28;20061;-78
2023/03/13 03:23:58;;;;;;;7.60;4.15;;;;;;;-2.22;61.19;95032.66;4998982;28;20034;-78
2023/03/13 03:26:24;;;;;;;6.50;4.15;;;;;;;-2.49;61.86;95019.84;5016045;28;20427;-78
2023/03/13 03:28:50;;;;;;;8.82;5.03;;;;;;;-2.89;61.62;94961.69;5016770;28;20575;-78
2023/03/13 03:31:15;;;;;;;6.50;4.47;;;;;;;-2.45;62.47;95023.13;5033853;28;20029;-78
2023/03/13 03:33:41;;;;;;;8.50;5.00;;;;;;;-2.08;62.64;95104.38;5044490;28;20033;-78
2023/03/13 03:36:08;;;;;;;6.00;3.97;;;;;;;-1.94;64.30;95176.09;5036718;28;20025;-78
2023/03/13 03:38:34;;;;;;;6.57;4.40;;;;;;;-3.09;64.20;94988.47;5021434;28;20048;-78
2023/03/13 03:40:59;;;;;;;10.52;5.38;;;;;;;-2.72;63.85;95041.69;5033687;28;20034;-78
2023/03/13 03:43:25;;;;;;;9.25;5.95;;;;;;;-1.78;63.84;95206.22;5015931;28;20041;-78
2023/03/13 03:45:50;;;;;;;7.55;4.85;;;;;;;-1.89;64.07;95189.53;5034300;28;20038;-78
2023/03/13 03:48:16;;;;;;;9.32;4.70;;;;;;;-2.68;64.68;95064.50;5052247;28;20033;-78
2023/03/13 03:50:41;;;;;;;7.53;4.88;;;;;;;-2.57;63.31;95096.38;5035876;28;20032;-78
2023/03/13 03:53:07;;;;;;;6.10;3.85;;;;;;;-2.72;62.75;95084.09;5053450;28;20470;-78
2023/03/13 03:55:32;;;;;;;6.45;4.18;;;;;;;-2.04;63.84;95198.41;5035725;28;20063;-78
2023/03/13 03:57:58;;;;;;;8.00;4.20;;;;;;;-2.85;64.78;95087.84;5052016;28;20025;-78
2023/03/13 04:00:23;;;;;;;7.47;4.65;;;;;;;-2.84;64.01;95100.53;5052770;28;20407;-78
2023/03/13 04:02:49;;;;;;;9.02;4.25;;;;;;;-2.96;64.50;95081.31;5053556;28;20419;-78
2023/03/13 04:05:15;;;;;;;8.55;5.65;;;;;;;-1.97;62.72;95216.94;5031857;28;20045;-78
2023/03/13 04:07:40;;;;;;;9.48;5.20;;;;;;;-2.12;63.33;95214.78;5033467;28;20459;-78
2023/03/13 04:10:06;;;;;;;6.72;4.72;;;;;;;-3.05;63.44;95090.91;5015590;28;20021;-78
2023/03/13 04:12:32;;;;;;;6.63;4.60;;;;;;;-2.94;63.12;95111.78;5015204;28;20025;-78
2023/03/13 04:14:57;;;;;;;5.90;3.90;;;;;;;-2.81;63.20;95150.47;5016674;28;20034;-78
2023/03/13 04:17:23;;;;;;;6.72;3.92;;;;;;;-3.21;63.18;95092.97;5032881;28;20049;-78
2023/03/13 04:19:48;;;;;;;4.97;3.70;;;;;;;-2.89;62.89;95132.84;5033373;28;20181;-78
2023/03/13 04:22:14;;;;;;;8.23;4.57;;;;;;;-3.09;62.98;95135.91;5015307;28;20440;-78
2023/03/13 04:24:39;;;;;;;7.25;4.45;;;;;;;-3.22;63.30;95109.13;5033525;28;20029;-78
2023/03/13 04:27:05;;;;;;;6.78;3.75;;;;;;;-3.24;63.67;95086.25;5032822;28;20043;-78
2023/03/13 04:29:34;;;;;;;7.47;4.28;;;;;;;-2.92;63.00;95127.84;5033324;28;20030;-78
2023/03/13 04:32:00;;;;;;;4.72;3.70;;;;;;;-3.29;63.65;95112.66;5016026;28;20243;-78
2023/03/13 04:34:25;;;;;;;5.25;3.83;;;;;;;-3.24;64.30;95132.00;5033117;28;20049;-78
2023/03/13 04:36:51;;;;;;;7.53;5.05;;;;;;;-2.38;64.91;95249.41;5032486;28;20029;-78
2023/03/13 04:39:16;;;;;;;9.70;6.30;;;;;;;-2.99;65.08;95165.28;5033243;28;20037;-78
2023/03/13 04:41:42;;;;;;;6.35;4.30;;;;;;;-3.09;63.57;95137.59;5014997;28;20477;-78
2023/03/13 04:44:07;;;;;;;5.40;3.95;;;;;;;-3.09;63.99;95135.91;5032931;28;20053;-78
2023/03/13 04:46:33;;;;;;;6.35;3.92;;;;;;;-3.31;63.60;95120.34;5031792;28;20033;-78
2023/03/13 04:48:59;;;;;;;6.38;3.83;;;;;;;-3.11;63.78;95163.06;5014780;28;20029;-78
2023/03/13 04:51:24;;;;;;;9.05;3.90;;;;;;;-3.24;63.76;95143.88;4998364;28;20037;-78
2023/03/13 04:53:50;;;;;;;4.97;3.55;;;;;;;-3.13;63.15;95177.50;5039071;28;20033;-78
2023/03/13 04:56:23;;;;;;;5.43;3.63;;;;;;;-3.47;63.28;95129.19;5030188;28;20113;-78
2023/03/13 04:58:49;;;;;;;5.03;3.30;;;;;;;-2.49;64.16;95287.84;5032553;28;20079;-78
2023/03/13 05:01:14;;;;;;;5.43;3.30;;;;;;;-3.37;64.36;95150.97;5031940;28;20034;-78
2023/03/13 05:03:40;;;;;;;6.80;3.50;;;;;;;-3.33;64.93;95172.88;5032415;28;20033;-81
2023/03/13 05:06:06;;;;;;;6.20;3.90;;;;;;;-3.31;65.53;95188.94;5037281;28;20045;-80
2023/03/13 05:08:31;;;;;;;8.18;4.45;;;;;;;-3.09;65.64;95199.44;5043664;28;20029;-80
2023/03/13 05:10:57;;;;;;;6.28;4.15;;;;;;;-3.27;65.80;95188.00;5030063;28;20100;-80
2023/03/13 05:13:22;;;;;;;6.72;4.22;;;;;;;-2.57;66.87;95283.81;5048105;28;20032;-80
2023/03/13 05:15:48;;;;;;;8.25;4.93;;;;;;;-3.06;66.61;95193.47;5040392;28;20432;-80
2023/03/13 05:18:13;;;;;;;7.38;4.75;;;;;;;-3.05;65.63;95190.03;5047240;28;20136;-80
2023/03/13 05:20:39;;;;;;;8.98;4.80;;;;;;;-3.24;65.28;95172.66;5027946;28;20028;-80
2023/03/13 05:23:05;;;;;;;8.60;4.65;;;;;;;-2.37;63.94;95303.69;5048448;28;20052;-80
2023/03/13 05:25:31;;;;;;;8.52;5.15;;;;;;;-3.12;63.67;95175.78;5027884;28;20018;-80
2023/03/13 05:27:56;;;;;;;5.60;3.80;;;;;;;-3.27;62.98;95175.28;5025895;28;20029;-80
2023/03/13 05:30:22;;;;;;;8.93;4.13;;;;;;;-3.13;63.41;95167.34;5044537;28;20033;-80
2023/03/13 05:32:47;;;;;;;8.15;4.65;;;;;;;-2.30;64.00;95317.94;5047561;28;20032;-80
2023/03/13 05:35:13;;;;;;;5.35;4.15;;;;;;;-2.75;64.95;95221.53;5038543;28;20041;-80
2023/03/13 05:37:39;;;;;;;6.97;4.25;;;;;;;-3.17;65.49;95176.75;5026467;28;20079;-80
2023/03/13 05:40:05;;;;;;;10.18;5.18;;;;;;;-3.05;65.13;95198.50;5038631;28;20029;-78
2023/03/13 05:42:31;;;;;;;9.13;5.63;;;;;;;-2.87;64.99;95209.94;5040526;28;20021;-81
2023/03/13 05:44:56;;;;;;;6.63;4.68;;;;;;;-2.97;64.94;95190.69;5042157;28;20017;-79
2023/03/13 05:47:25;;;;;;;8.82;5.35;;;;;;;-2.27;63.97;95293.22;5026899;28;20028;-79
2023/03/13 05:49:51;;;;;;;8.73;5.00;;;;;;;-2.70;64.33;95220.53;5028875;28;20131;-79
2023/03/13 05:52:16;;;;;;;8.73;5.20;;;;;;;-2.32;65.05;95301.84;5047908;28;20041;-79
2023/03/13 05:54:42;;;;;;;7.10;4.40;;;;;;;-2.53;65.01;95211.66;5048639;28;20450;-79
2023/03/13 05:57:07;;;;;;;6.88;4.68;;;;;;;-2.38;64.53;95201.06;5022307;28;20033;-79
2023/03/13 05:59:33;;;;;;;6.50;4.53;;;;;;;-1.24;62.38;95249.66;5024656;28;20112;-79
2023/03/13 06:01:58;;;;;;;7.13;4.63;;;;;;;-0.20;60.59;95329.75;5041085;28;20021;-79
2023/03/13 06:04:24;;;;;;;5.93;4.70;;;;;;;-0.26;59.32;95241.41;5049036;28;20033;-81
2023/03/13 06:06:49;;;;;;;5.93;4.35;;;;;;;0.94;58.42;95333.50;4990336;28;20033;-81
2023/03/13 06:09:15;;;;;;;5.28;4.05;;;;;;;2.13;53.40;95264.72;5014310;28;20042;-81
2023/03/13 06:11:41;;;;;;;6.35;4.20;;;;;;;3.34;50.66;95276.41;5042510;28;20033;-85
2023/03/13 06:14:06;;;;;;;6.90;4.78;;;;;;;5.00;47.70;95335.88;5034066;28;20036;-81
2023/03/13 06:16:32;;;;;;;8.05;5.20;;;;;;;5.91;42.34;95217.50;5031217;28;20060;-80
2023/03/13 06:18:58;;;;;;;9.50;7.20;;;;;;;7.70;37.86;95306.50;5051823;28;20090;-80
2023/03/13 06:21:24;;;;;;;12.93;8.82;;;;;;;9.40;34.20;95297.72;5012912;28;20033;-83
2023/03/13 06:23:54;;;;;;;11.38;7.15;;;;;;;11.46;32.95;95331.84;5022259;28;20084;-85
2023/03/13 06:26:19;;;;;;;18.73;10.55;;;;;;;12.14;30.68;95242.22;5017150;28;20102;-79
2023/03/13 06:28:45;;;;;;;18.00;11.27;;;;;;;13.17;28.28;95259.66;4991133;28;20527;-80
2023/03/13 06:31:10;;;;;;;24.20;16.52;;;;;;;14.09;26.61;95302.03;5036464;28;20480;-81
2023/03/13 06:33:36;;;;;;;24.70;18.45;;;;;;;15.43;24.84;95321.25;5030517;28;20487;-83
2023/03/13 06:36:02;;;;;;;29.20;18.98;;;;;;;15.47;24.08;95220.53;5011314;28;20171;-79
2023/03/13 06:38:28;;;;;;;27.63;18.58;;;;;;;16.63;23.18;95296.59;5039319;28;20029;-81
2023/03/13 06:40:53;;;;;;;23.98;17.02;;;;;;;16.88;22.97;95235.50;5014321;28;20044;-82
2023/03/13 06:43:19;;;;;;;19.48;14.82;;;;;;;18.05;21.94;95210.28;5051005;28;20017;-82
2023/03/13 06:45:45;;;;;;;23.10;16.52;;;;;;;19.04;20.19;95282.94;4997172;28;20064;-84
2023/03/13 06:48:10;;;;;;;23.25;16.17;;;;;;;18.48;20.33;95245.16;5012776;28;20040;-84
2023/03/13 06:50:39;;;;;;;20.73;14.35;;;;;;;17.57;20.35;95189.00;5026828;28;20103;-84
2023/03/13 06:53:05;;;;;;;17.10;12.23;;;;;;;18.51;19.64;95173.78;5016388;28;20526;-84
2023/03/13 06:55:31;;;;;;;12.10;10.20;;;;;;;19.49;18.60;95176.09;5016186;28;20146;-84
2023/03/13 06:57:58;;;;;;;13.50;10.45;;;;;;;20.16;17.79;95140.41;5034398;28;20112;-84
2023/03/13 07:00:24;;;;;;;11.27;7.95;;;;;;;20.73;17.12;95200.63;5034957;28;20420;-80
2023/03/13 07:02:50;;;;;;;12.82;7.45;;;;;;;21.42;16.88;95287.53;5036648;28;20053;-77
2023/03/13 07:05:16;;;;;;;11.98;8.07;;;;;;;21.02;16.16;95215.66;5037893;28;20136;-79
2023/03/13 07:07:41;;;;;;;10.90;8.00;;;;;;;21.84;16.24;95280.75;5044600;28;20079;-80
2023/03/13 07:10:09;;;;;;;13.15;8.93;;;;;;;21.17;16.69;95234.13;5053446;28;20075;-79
2023/03/13 07:12:35;;;;;;;12.07;8.43;;;;;;;19.71;16.78;95181.63;5032448;28;20021;-80
2023/03/13 07:15:00;;;;;;;13.82;9.70;;;;;;;20.24;17.53;95277.50;5027557;28;20040;-80
2023/03/13 07:17:26;;;;;;;11.38;8.57;;;;;;;20.38;17.68;95282.00;5039719;28;20124;-79
2023/03/13 07:19:51;;;;;;;12.65;9.38;;;;;;;19.59;18.09;95261.03;5043447;28;20518;-80
2023/03/13 07:22:16;;;;;;;18.92;11.10;;;;;;;19.02;19.11;95282.28;5054370;28;20479;-80
2023/03/13 07:24:42;;;;;;;14.68;10.70;;;;;;;18.22;19.54;95282.09;5016660;28;20025;-80
2023/03/13 07:27:07;;;;;;;13.93;9.82;;;;;;;16.42;21.16;95268.09;5000298;28;20033;-80
2023/03/13 07:29:33;;;;;;;13.65;9.80;;;;;;;15.22;23.00;95291.88;5017370;28;20029;-80
2023/03/13 07:31:58;;;;;;;13.10;9.73;;;;;;;13.79;24.17;95273.41;5017174;28;20025;-80
2023/03/13 07:34:24;;;;;;;13.75;9.70;;;;;;;13.01;25.52;95295.81;5035189;28;20026;-79
2023/03/13 07:36:49;;;;;;;12.73;9.05;;;;;;;12.44;26.78;95297.97;4984220;28;20037;-80
2023/03/13 07:39:15;;;;;;;10.57;8.10;;;;;;;11.54;28.09;95273.06;5035214;28;20055;-79
2023/03/13 07:41:41;;;;;;;13.23;8.52;;;;;;;11.29;28.10;95291.56;5000858;28;20042;-79
2023/03/13 07:44:06;;;;;;;13.50;7.97;;;;;;;10.88;28.66;95295.56;5017231;28;20022;-79
2023/03/13 07:46:32;;;;;;;12.40;8.02;;;;;;;10.39;29.48;95288.84;5017351;28;20036;-79
2023/03/13 07:48:57;;;;;;;11.77;8.60;;;;;;;10.27;30.80;95291.44;5000693;28;20032;-80
2023/03/13 07:51:24;;;;;;;12.70;9.05;;;;;;;9.84;31.12;95263.41;5017128;28;20042;-79
2023/03/13 07:53:50;;;;;;;16.35;9.32;;;;;;;9.65;32.06;95304.59;5017151;28;20029;-79
2023/03/13 07:56:17;;;;;;;14.13;9.60;;;;;;;8.84;33.08;95305.91;5016799;28;20495;-80
2023/03/13 07:58:42;;;;;;;12.60;8.68;;;;;;;8.47;33.58;95307.56;5001012;28;20099;-80
2023/03/13 08:01:22;;;;;;;14.00;8.98;;;;;;;8.39;34.59;95312.41;5017051;28;20492;-79
2023/03/13 08:03:49;;;;;;;17.73;10.27;;;;;;;8.14;35.25;95297.63;4984437;28;20033;-79
2023/03/13 08:06:16;;;;;;;11.90;7.90;;;;;;;7.89;35.08;95265.59;5017275;28;20503;-79
2023/03/13 08:08:42;;;;;;;12.98;9.73;;;;;;;7.56;37.16;95294.44;4999871;28;20029;-79
2023/03/13 08:11:15;;;;;;;13.98;9.23;;;;;;;7.31;37.34;95300.34;4984259;28;20510;-79
2023/03/13 08:13:40;;;;;;;22.05;11.43;;;;;;;7.75;37.86;95283.78;5000405;28;20060;-79
2023/03/13 08:16:13;;;;;;;13.05;9.68;;;;;;;7.79;37.38;95269.69;5034403;28;20038;-79
2023/03/13 08:18:41;;;;;;;11.90;9.48;;;;;;;7.90;37.33;95267.25;4984478;28;20128;-80
2023/03/13 08:21:08;;;;;;;13.90;10.15;;;;;;;8.22;37.57;95279.84;5000133;28;20127;-80
2023/03/13 08:23:34;;;;;;;13.63;9.15;;;;;;;8.10;37.28;95262.53;5000096;28;20034;-79
2023/03/13 08:26:14;;;;;;;11.07;8.77;;;;;;;8.38;36.92;95279.63;5016131;28;20030;-79
2023/03/13 08:28:39;;;;;;;12.77;9.27;;;;;;;8.54;36.90;95272.53;5016837;28;20059;-79
2023/03/13 08:31:16;;;;;;;15.27;9.85;;;;;;;8.36;37.39;95278.91;5016157;28;20037;-79
2023/03/13 08:33:42;;;;;;;14.65;8.93;;;;;;;8.13;37.81;95270.91;4999760;28;20033;-79
2023/03/13 08:36:16;;;;;;;13.30;9.63;;;;;;;8.49;38.00;95274.59;4999488;28;20498;-79
2023/03/13 08:38:43;;;;;;;15.32;9.15;;;;;;;8.60;37.63;95281.66;5016366;28;20029;-80
2023/03/13 08:41:08;;;;;;;12.25;9.18;;;;;;;8.57;36.92;95293.03;5015829;28;20476;-79
2023/03/13 08:43:34;;;;;;;14.40;10.00;;;;;;;8.58;36.60;95294.72;5015570;28;20033;-79
2023/03/13 08:45:59;;;;;;;13.00;9.48;;;;;;;8.34;37.02;95260.91;5015784;28;20029;-79
2023/03/13 08:48:25;;;;;;;12.40;9.40;;;;;;;7.92;38.86;95267.16;5015620;28;20041;-80
2023/03/13 08:51:01;;;;;;;14.00;9.65;;;;;;;8.20;37.19;95294.66;4999183;28;20519;-80
2023/03/13 08:53:27;;;;;;;16.38;10.32;;;;;;;7.85;38.03;95277.06;5015107;28;20292;-79
2023/03/13 08:55:53;;;;;;;15.77;11.38;;;;;;;7.99;38.25;95292.50;5015448;28;20484;-80
2023/03/13 08:58:18;;;;;;;13.90;10.90;;;;;;;8.11;38.24;95285.72;4999153;28;20041;-80
2023/03/13 09:00:44;;;;;;;13.88;10.57;;;;;;;8.04;38.05;95276.69;4999222;28;20052;-80
2023/03/13 09:03:09;;;;;;;14.23;10.50;;;;;;;6.44;40.12;95253.06;5014956;28;20041;-80
2023/03/13 09:05:36;;;;;;;18.00;10.98;;;;;;;6.88;39.79;95270.22;5015303;28;20030;-80
2023/03/13 09:08:02;;;;;;;13.85;10.10;;;;;;;7.28;39.51;95274.69;4998948;28;20030;-80
2023/03/13 09:10:27;;;;;;;11.27;8.38;;;;;;;7.27;38.31;95273.00;4998719;28;20535;-79
2023/03/13 09:12:53;;;;;;;12.60;8.93;;;;;;;7.16;39.12;95281.44;4998474;28;20030;-80
2023/03/13 09:15:18;;;;;;;12.25;8.65;;;;;;;6.76;39.40;95237.38;5014880;28;20037;-80
2023/03/13 09:17:44;;;;;;;14.65;10.15;;;;;;;7.21;39.85;95273.38;4982325;28;20057;-80
2023/03/13 09:20:10;;;;;;;20.23;10.93;;;;;;;6.98;39.70;95278.22;5014922;28;20037;-80
2023/03/13 09:22:35;;;;;;;19.50;11.32;;;;;;;6.96;40.58;95259.41;5014740;28;20052;-79
2023/03/13 09:25:00;;;;;;;17.63;10.85;;;;;;;7.16;39.89;95277.09;5015049;28;20484;-80
2023/03/13 09:27:27;;;;;;;18.05;11.55;;;;;;;7.18;39.79;95265.84;5014907;28;20073;-80
2023/03/13 09:29:53;;;;;;;15.07;10.15;;;;;;;7.37;41.22;95261.16;5014721;28;20068;-79
2023/03/13 09:32:19;;;;;;;14.52;10.52;;;;;;;7.51;39.79;95255.13;4998358;28;20056;-80
2023/03/13 09:34:45;;;;;;;15.25;10.35;;;;;;;7.61;40.56;95267.38;5032317;28;20044;-80
2023/03/13 09:37:11;;;;;;;18.48;10.73;;;;;;;7.84;40.00;95268.47;4998167;28;20025;-80
2023/03/13 09:39:36;;;;;;;16.63;11.02;;;;;;;7.75;40.15;95253.56;4998230;28;20083;-80
2023/03/13 09:42:20;;;;;;;13.15;9.52;;;;;;;7.73;39.76;95263.16;4998051;28;20037;-80
2023/03/13 09:44:56;;;;;;;14.38;10.52;;;;;;;7.50;39.82;95251.72;5000488;28;20102;-80
2023/03/13 09:47:29;;;;;;;15.38;10.45;;;;;;;7.77;40.40;95256.03;4998863;28;20026;-80
2023/03/13 09:49:57;;;;;;;16.35;11.50;;;;;;;7.70;39.42;95271.13;4998927;28;20041;-80
2023/03/13 09:52:24;;;;;;;16.88;11.88;;;;;;;7.51;39.05;95274.03;5014759;28;20029;-80
2023/03/13 09:55:01;;;;;;;19.75;11.85;;;;;;;7.51;40.38;95268.88;4998362;28;20041;-80
2023/03/13 09:57:43;;;;;;;14.30;10.25;;;;;;;7.71;40.77;95271.94;5031832;28;20030;-80
2023/03/13 10:00:16;;;;;;;15.80;10.32;;;;;;;7.50;38.80;95243.97;4999256;28;20127;-80
2023/03/13 10:02:46;;;;;;;15.88;9.75;;;;;;;7.37;40.20;95266.34;4998299;28;20033;-80
2023/03/13 10:05:16;;;;;;;15.90;11.00;;;;;;;7.49;39.59;95257.78;4997876;28;20030;-80
2023/03/13 10:07:41;;;;;;;14.88;10.85;;;;;;;7.15;40.48;95259.91;5031821;28;20029;-80
2023/03/13 10:10:13;;;;;;;12.15;9.25;;;;;;;7.20;40.19;95253.66;5031587;28;20464;-79
2023/03/13 10:12:40;;;;;;;;;;;;;;;7.05;41.20;95247.66;4982028;28;20033;-80
2023/03/13 10:15:17;;;;;;;;;;;;;;;6.68;41.27;95242.19;4998096;28;20402;-79
2023/03/13 10:17:42;;;;;;;;;;;;;;;6.82;40.63;95241.34;5032012;28;19960;-80
2023/03/13 10:20:13;;;;;;;;;;;;;;;7.03;41.26;95245.19;5014333;28;19975;-79
2023/03/13 10:22:39;;;;;;;;;;;;;;;7.24;40.81;95237.00;5014232;28;19920;-79
2023/03/13 10:25:08;;;;;;;;;;;;;;;7.27;40.49;95232.50;5014506;28;19924;-81
2023/03/13 10:27:44;;;;;;;;;;;;;;;7.48;40.51;95229.47;5014433;28;19913;-79
2023/03/13 10:30:17;;;;;;;;;;;;;;;7.63;40.81;95223.31;5032106;28;20388;-80
2023/03/13 10:32:42;;;;;;;;;;;;;;;7.56;41.07;95219.47;4998212;28;19978;-80
2023/03/13 10:35:09;;;;;;;;;;;;;;;7.50;40.02;95212.94;5013999;28;20391;-80
2023/03/13 10:37:41;;;;;;;;;;;;;;;7.66;40.51;95202.44;5014703;28;20367;-80
2023/03/13 10:40:24;;;;;;;;;;;;;;;7.78;41.04;95203.41;4997991;28;19921;-80
2023/03/13 10:42:50;;;;;;;;;;;;;;;7.81;40.43;95200.59;4997737;28;19991;-80
2023/03/13 10:45:16;;;;;;;;;;;;;;;7.98;40.28;95195.13;4997663;28;19987;-80
2023/03/13 10:47:41;;;;;;;;;;;;;;;8.13;40.03;95195.03;5013705;28;20008;-80
2023/03/13 10:50:07;;;;;;;;;;;;;;;8.48;39.74;95184.94;5013744;28;20003;-80
2023/03/13 10:52:42;;;;;;;;;;;;;;;8.61;39.47;95175.38;5013936;28;20387;-80
2023/03/13 10:55:12;;;;;;;;;;;;;;;8.57;39.41;95178.28;5013707;28;20295;-80
2023/03/13 10:57:37;;;;;;;;;;;;;;;8.51;38.93;95169.19;4997128;28;19913;-80
2023/03/13 11:00:23;;;;;;;;;;;;;;;8.49;39.37;95171.03;4997249;28;19929;-82
2023/03/13 11:02:48;;;;;;;;;;;;;;;8.54;40.00;95168.97;5000255;28;20030;-79
2023/03/13 11:05:19;;;;;;;;;;;;;;;8.75;39.91;95160.63;4997808;28;20387;-80
2023/03/13 11:07:46;;;;;;;;;;;;;;;8.75;38.99;95151.13;5014113;28;20322;-80
2023/03/13 11:10:31;;;;;;;;;;;;;;;8.73;38.95;95165.94;5013917;28;20007;-80
2023/03/13 11:12:56;;;;;;;;;;;;;;;8.78;38.77;95158.66;4997998;28;19917;-80
2023/03/13 11:15:29;;;;;;;;;;;;;;;8.89;38.98;95145.78;4997574;28;20290;-80
2023/03/13 11:18:00;;;;;;;;;;;;;;;8.78;38.34;95139.72;5014172;28;19921;-79
2023/03/13 11:20:26;;;;;;;;;;;;;;;8.49;38.76;95143.38;5031860;28;19978;-80
2023/03/13 11:23:13;;;;;;;;;;;;;;;8.72;38.57;95134.03;5031591;28;19917;-80
2023/03/13 11:25:45;;;;;;;;;;;;;;;8.58;38.76;95126.41;5013932;28;19920;-80
2023/03/13 11:28:16;;;;;;;;;;;;;;;8.72;38.99;95131.44;4997491;28;19925;-80
2023/03/13 11:30:44;;;;;;;;;;;;;;;8.69;39.08;95131.66;5014055;28;19963;-79
2023/03/13 11:33:29;;;;;;;;;;;;;;;9.11;38.52;95123.50;5013735;28;19924;-79
2023/03/13 11:36:00;;;;;;;;;;;;;;;9.10;37.84;95125.25;5031648;28;20359;-79
2023/03/13 11:38:35;;;;;;;;;;;;;;;9.11;37.83;95116.56;5013437;28;20343;-79
2023/03/13 11:41:01;;;;;;;;;;;;;;;9.43;38.97;95115.97;4997121;28;20031;-80